sensor_id;sensor_type;location;lat;lon;timestamp;pressure;altitude;pressure_sealevel;temperature;humidity
67803;BME280;54601;51.378;-1.342;2023-02-26T00:00:04;100866.48;;;17.29;25.61
67803;BME280;54601;51.378;-1.342;2023-02-26T00:02:29;100866.96;;;17.52;25.56
67803;BME280;54601;51.378;-1.342;2023-02-26T00:04:54;100874.79;;;17.40;25.52
67803;BME280;54601;51.378;-1.342;2023-02-26T00:07:19;100877.40;;;17.30;25.59
67803;BME280;54601;51.378;-1.342;2023-02-26T00:09:45;100875.96;;;17.56;25.56
67803;BME280;54601;51.378;-1.342;2023-02-26T00:12:11;100876.56;;;17.34;25.55
67803;BME280;54601;51.378;-1.342;2023-02-26T00:14:36;100882.79;;;17.29;25.57
67803;BME280;54601;51.378;-1.342;2023-02-26T00:19:27;100885.86;;;17.33;25.50
67803;BME280;54601;51.378;-1.342;2023-02-26T00:21:52;100888.53;;;17.21;25.62
67803;BME280;54601;51.378;-1.342;2023-02-26T00:24:17;100888.51;;;17.27;25.52
67803;BME280;54601;51.378;-1.342;2023-02-26T00:26:43;100888.23;;;17.22;25.56
67803;BME280;54601;51.378;-1.342;2023-02-26T00:29:08;100888.69;;;17.21;25.46
67803;BME280;54601;51.378;-1.342;2023-02-26T00:31:34;100889.34;;;17.19;25.53
67803;BME280;54601;51.378;-1.342;2023-02-26T00:33:59;100890.10;;;17.44;25.53
67803;BME280;54601;51.378;-1.342;2023-02-26T00:36:32;100890.86;;;17.13;25.61
67803;BME280;54601;51.378;-1.342;2023-02-26T00:39:00;100888.58;;;17.19;25.56
67803;BME280;54601;51.378;-1.342;2023-02-26T00:41:15;100881.00;;;17.37;25.52
67803;BME280;54601;51.378;-1.342;2023-02-26T00:43:41;100880.34;;;17.08;25.55
67803;BME280;54601;51.378;-1.342;2023-02-26T00:46:14;100884.52;;;17.12;25.68
67803;BME280;54601;51.378;-1.342;2023-02-26T00:48:41;100883.37;;;17.13;25.54
67803;BME280;54601;51.378;-1.342;2023-02-26T00:51:04;100891.83;;;17.11;25.60
67803;BME280;54601;51.378;-1.342;2023-02-26T00:53:27;100890.84;;;17.15;25.49
67803;BME280;54601;51.378;-1.342;2023-02-26T00:55:47;100893.09;;;17.09;25.52
67803;BME280;54601;51.378;-1.342;2023-02-26T00:58:12;100899.21;;;17.06;25.61
67803;BME280;54601;51.378;-1.342;2023-02-26T01:00:38;100898.73;;;17.08;25.56
67803;BME280;54601;51.378;-1.342;2023-02-26T01:03:04;100896.79;;;17.02;25.61
67803;BME280;54601;51.378;-1.342;2023-02-26T01:05:29;100888.02;;;17.15;25.68
67803;BME280;54601;51.378;-1.342;2023-02-26T01:08:01;100889.42;;;16.91;25.64
67803;BME280;54601;51.378;-1.342;2023-02-26T01:10:20;100892.06;;;17.12;25.66
67803;BME280;54601;51.378;-1.342;2023-02-26T01:12:45;100889.34;;;16.96;25.55
67803;BME280;54601;51.378;-1.342;2023-02-26T01:15:11;100884.91;;;16.96;25.56
67803;BME280;54601;51.378;-1.342;2023-02-26T01:17:42;100886.22;;;16.99;25.51
67803;BME280;54601;51.378;-1.342;2023-02-26T01:20:04;100886.05;;;16.84;25.60
67803;BME280;54601;51.378;-1.342;2023-02-26T01:22:30;100886.56;;;16.88;25.53
67803;BME280;54601;51.378;-1.342;2023-02-26T01:24:58;100885.49;;;17.08;25.58
67803;BME280;54601;51.378;-1.342;2023-02-26T01:27:17;100882.93;;;17.01;25.70
67803;BME280;54601;51.378;-1.342;2023-02-26T01:29:43;100882.03;;;16.85;25.58
67803;BME280;54601;51.378;-1.342;2023-02-26T01:32:15;100888.59;;;17.06;25.58
67803;BME280;54601;51.378;-1.342;2023-02-26T01:34:38;100884.33;;;16.98;25.65
67803;BME280;54601;51.378;-1.342;2023-02-26T01:37:04;100887.35;;;16.98;25.59
67803;BME280;54601;51.378;-1.342;2023-02-26T01:39:27;100884.12;;;16.82;25.56
67803;BME280;54601;51.378;-1.342;2023-02-26T01:41:51;100886.73;;;17.05;25.58
67803;BME280;54601;51.378;-1.342;2023-02-26T01:44:22;100890.57;;;16.99;25.58
67803;BME280;54601;51.378;-1.342;2023-02-26T01:46:53;100892.12;;;16.78;25.59
67803;BME280;54601;51.378;-1.342;2023-02-26T01:49:12;100892.96;;;17.05;25.58
67803;BME280;54601;51.378;-1.342;2023-02-26T01:51:39;100897.89;;;16.73;25.57
67803;BME280;54601;51.378;-1.342;2023-02-26T01:53:56;100898.37;;;16.93;25.58
67803;BME280;54601;51.378;-1.342;2023-02-26T01:56:22;100899.91;;;16.92;25.63
67803;BME280;54601;51.378;-1.342;2023-02-26T01:58:49;100898.61;;;17.16;25.59
67803;BME280;54601;51.378;-1.342;2023-02-26T02:01:13;100900.75;;;16.85;25.68
67803;BME280;54601;51.378;-1.342;2023-02-26T02:03:40;100901.79;;;16.93;25.56
67803;BME280;54601;51.378;-1.342;2023-02-26T02:06:06;100900.57;;;16.69;25.81
67803;BME280;54601;51.378;-1.342;2023-02-26T02:08:31;100906.31;;;17.12;25.58
67803;BME280;54601;51.378;-1.342;2023-02-26T02:10:54;100914.10;;;16.56;25.67
67803;BME280;54601;51.378;-1.342;2023-02-26T02:13:30;100918.66;;;16.87;25.57
67803;BME280;54601;51.378;-1.342;2023-02-26T02:15:48;100918.02;;;16.77;25.58
67803;BME280;54601;51.378;-1.342;2023-02-26T02:18:15;100916.93;;;17.09;25.70
67803;BME280;54601;51.378;-1.342;2023-02-26T02:23:09;100923.42;;;16.88;25.54
67803;BME280;54601;51.378;-1.342;2023-02-26T02:25:37;100926.35;;;16.58;25.63
67803;BME280;54601;51.378;-1.342;2023-02-26T02:27:57;100925.64;;;16.73;25.67
67803;BME280;54601;51.378;-1.342;2023-02-26T02:30:27;100922.84;;;17.07;25.59
67803;BME280;54601;51.378;-1.342;2023-02-26T02:32:46;100917.05;;;16.46;25.71
67803;BME280;54601;51.378;-1.342;2023-02-26T02:35:13;100917.86;;;16.80;25.52
67803;BME280;54601;51.378;-1.342;2023-02-26T02:37:36;100914.51;;;16.69;25.60
67803;BME280;54601;51.378;-1.342;2023-02-26T02:40:03;100914.64;;;16.90;25.64
67803;BME280;54601;51.378;-1.342;2023-02-26T02:42:29;100922.29;;;16.97;25.64
67803;BME280;54601;51.378;-1.342;2023-02-26T02:44:55;100923.05;;;16.74;25.56
67803;BME280;54601;51.378;-1.342;2023-02-26T02:47:18;100922.98;;;16.65;25.61
67803;BME280;54601;51.378;-1.342;2023-02-26T02:49:44;100923.25;;;16.95;25.61
67803;BME280;54601;51.378;-1.342;2023-02-26T02:52:10;100916.78;;;16.67;25.60
67803;BME280;54601;51.378;-1.342;2023-02-26T02:54:36;100915.55;;;16.58;25.65
67803;BME280;54601;51.378;-1.342;2023-02-26T02:57:01;100926.86;;;16.91;25.61
67803;BME280;54601;51.378;-1.342;2023-02-26T02:59:27;100931.65;;;16.62;25.69
67803;BME280;54601;51.378;-1.342;2023-02-26T03:01:52;100933.40;;;16.57;25.68
67803;BME280;54601;51.378;-1.342;2023-02-26T03:04:15;100930.40;;;16.61;25.64
67803;BME280;54601;51.378;-1.342;2023-02-26T03:06:40;100928.82;;;16.85;25.67
67803;BME280;54601;51.378;-1.342;2023-02-26T03:09:07;100929.17;;;16.54;25.64
67803;BME280;54601;51.378;-1.342;2023-02-26T03:11:31;100933.09;;;16.47;25.71
67803;BME280;54601;51.378;-1.342;2023-02-26T03:13:56;100936.24;;;16.70;25.73
67803;BME280;54601;51.378;-1.342;2023-02-26T03:16:35;100937.37;;;16.74;25.71
67803;BME280;54601;51.378;-1.342;2023-02-26T03:18:52;100933.59;;;16.47;25.67
67803;BME280;54601;51.378;-1.342;2023-02-26T03:21:17;100933.88;;;16.76;25.65
67803;BME280;54601;51.378;-1.342;2023-02-26T03:23:42;100934.75;;;16.39;25.72
67803;BME280;54601;51.378;-1.342;2023-02-26T03:26:09;100939.74;;;16.42;25.71
67803;BME280;54601;51.378;-1.342;2023-02-26T03:28:31;100938.61;;;16.44;25.64
67803;BME280;54601;51.378;-1.342;2023-02-26T03:30:57;100942.25;;;16.63;25.70
67803;BME280;54601;51.378;-1.342;2023-02-26T03:33:25;100940.72;;;16.34;25.74
67803;BME280;54601;51.378;-1.342;2023-02-26T03:35:48;100942.18;;;16.46;25.64
67803;BME280;54601;51.378;-1.342;2023-02-26T03:38:15;100942.28;;;16.60;25.76
67803;BME280;54601;51.378;-1.342;2023-02-26T03:40:39;100943.95;;;16.35;25.64
67803;BME280;54601;51.378;-1.342;2023-02-26T03:43:04;100943.55;;;16.57;25.78
67803;BME280;54601;51.378;-1.342;2023-02-26T03:45:29;100954.49;;;16.29;25.75
67803;BME280;54601;51.378;-1.342;2023-02-26T03:47:53;100963.92;;;16.55;25.75
67803;BME280;54601;51.378;-1.342;2023-02-26T03:50:21;100961.90;;;16.51;25.79
67803;BME280;54601;51.378;-1.342;2023-02-26T03:52:45;100961.93;;;16.53;25.76
67803;BME280;54601;51.378;-1.342;2023-02-26T03:55:12;100961.80;;;16.53;25.77
67803;BME280;54601;51.378;-1.342;2023-02-26T03:57:34;100964.47;;;16.54;25.71
67803;BME280;54601;51.378;-1.342;2023-02-26T03:59:59;100963.76;;;16.54;25.77
67803;BME280;54601;51.378;-1.342;2023-02-26T04:02:28;100964.50;;;16.63;25.69
67803;BME280;54601;51.378;-1.342;2023-02-26T04:04:52;100967.45;;;16.51;25.76
67803;BME280;54601;51.378;-1.342;2023-02-26T04:07:16;100970.08;;;16.64;25.59
67803;BME280;54601;51.378;-1.342;2023-02-26T04:09:41;100972.53;;;16.50;25.76
67803;BME280;54601;51.378;-1.342;2023-02-26T04:12:07;100974.27;;;16.21;25.76
67803;BME280;54601;51.378;-1.342;2023-02-26T04:14:32;100976.54;;;16.44;25.78
67803;BME280;54601;51.378;-1.342;2023-02-26T04:16:57;100981.59;;;16.11;25.83
67803;BME280;54601;51.378;-1.342;2023-02-26T04:19:22;100982.60;;;16.41;25.82
67803;BME280;54601;51.378;-1.342;2023-02-26T04:21:48;100977.52;;;16.42;25.83
67803;BME280;54601;51.378;-1.342;2023-02-26T04:24:13;100980.28;;;16.12;25.84
67803;BME280;54601;51.378;-1.342;2023-02-26T04:26:39;100981.74;;;16.40;25.79
67803;BME280;54601;51.378;-1.342;2023-02-26T04:29:04;100982.32;;;16.45;25.78
67803;BME280;54601;51.378;-1.342;2023-02-26T04:31:30;100982.47;;;16.47;25.75
67803;BME280;54601;51.378;-1.342;2023-02-26T04:33:55;100983.29;;;16.59;25.82
67803;BME280;54601;51.378;-1.342;2023-02-26T04:36:21;100981.89;;;16.34;25.86
67803;BME280;54601;51.378;-1.342;2023-02-26T04:38:46;100984.26;;;16.43;25.80
67803;BME280;54601;51.378;-1.342;2023-02-26T04:41:12;100988.46;;;16.41;25.79
67803;BME280;54601;51.378;-1.342;2023-02-26T04:43:37;100990.42;;;16.39;25.79
67803;BME280;54601;51.378;-1.342;2023-02-26T04:46:03;100997.66;;;16.46;25.74
67803;BME280;54601;51.378;-1.342;2023-02-26T04:48:28;100995.93;;;16.05;25.78
67803;BME280;54601;51.378;-1.342;2023-02-26T04:50:53;100996.39;;;16.41;25.80
67803;BME280;54601;51.378;-1.342;2023-02-26T04:53:19;101002.27;;;15.83;25.98
67803;BME280;54601;51.378;-1.342;2023-02-26T04:55:47;101002.98;;;16.29;25.88
67803;BME280;54601;51.378;-1.342;2023-02-26T04:58:10;101003.82;;;16.45;25.75
67803;BME280;54601;51.378;-1.342;2023-02-26T05:00:35;101003.42;;;16.42;25.79
67803;BME280;54601;51.378;-1.342;2023-02-26T05:03:01;101007.95;;;15.96;26.14
67803;BME280;54601;51.378;-1.342;2023-02-26T05:05:26;101010.60;;;16.58;25.62
67803;BME280;54601;51.378;-1.342;2023-02-26T05:07:52;101010.65;;;16.54;25.70
67803;BME280;54601;51.378;-1.342;2023-02-26T05:10:17;101014.33;;;16.53;25.71
67803;BME280;54601;51.378;-1.342;2023-02-26T05:12:43;101013.36;;;16.35;25.60
67803;BME280;54601;51.378;-1.342;2023-02-26T05:15:09;101016.91;;;16.35;25.60
67803;BME280;54601;51.378;-1.342;2023-02-26T05:17:35;101015.48;;;16.62;25.63
67803;BME280;54601;51.378;-1.342;2023-02-26T05:19:59;101013.55;;;16.48;25.67
67803;BME280;54601;51.378;-1.342;2023-02-26T05:22:25;101018.57;;;16.09;25.86
67803;BME280;54601;51.378;-1.342;2023-02-26T05:24:50;101021.22;;;16.37;25.78
67803;BME280;54601;51.378;-1.342;2023-02-26T05:27:16;101026.61;;;16.36;25.89
67803;BME280;54601;51.378;-1.342;2023-02-26T05:29:41;101026.35;;;16.44;25.78
67803;BME280;54601;51.378;-1.342;2023-02-26T05:32:07;101026.82;;;16.36;25.92
67803;BME280;54601;51.378;-1.342;2023-02-26T05:34:32;101030.03;;;16.41;25.88
67803;BME280;54601;51.378;-1.342;2023-02-26T05:36:57;101032.37;;;16.38;25.88
67803;BME280;54601;51.378;-1.342;2023-02-26T05:39:23;101034.29;;;16.49;25.77
67803;BME280;54601;51.378;-1.342;2023-02-26T05:41:48;101036.53;;;16.44;25.88
67803;BME280;54601;51.378;-1.342;2023-02-26T05:44:14;101041.90;;;16.48;25.84
67803;BME280;54601;51.378;-1.342;2023-02-26T05:46:39;101048.07;;;15.92;26.00
67803;BME280;54601;51.378;-1.342;2023-02-26T05:49:05;101045.17;;;16.30;26.00
67803;BME280;54601;51.378;-1.342;2023-02-26T05:51:30;101044.62;;;16.37;26.12
67803;BME280;54601;51.378;-1.342;2023-02-26T05:53:55;101046.21;;;15.95;26.11
67803;BME280;54601;51.378;-1.342;2023-02-26T05:56:21;101051.92;;;15.77;26.50
67803;BME280;54601;51.378;-1.342;2023-02-26T05:58:46;101056.36;;;16.02;26.29
67803;BME280;54601;51.378;-1.342;2023-02-26T06:01:12;101056.71;;;16.08;26.28
67803;BME280;54601;51.378;-1.342;2023-02-26T06:03:37;101054.67;;;15.74;26.64
67803;BME280;54601;51.378;-1.342;2023-02-26T06:06:03;101052.97;;;15.74;26.63
67803;BME280;54601;51.378;-1.342;2023-02-26T06:08:28;101052.19;;;15.63;26.53
67803;BME280;54601;51.378;-1.342;2023-02-26T06:10:54;101055.44;;;15.72;26.71
67803;BME280;54601;51.378;-1.342;2023-02-26T06:13:19;101058.11;;;15.96;26.50
67803;BME280;54601;51.378;-1.342;2023-02-26T06:15:45;101055.82;;;15.88;26.65
67803;BME280;54601;51.378;-1.342;2023-02-26T06:18:10;101060.25;;;15.82;26.69
67803;BME280;54601;51.378;-1.342;2023-02-26T06:20:36;101060.94;;;15.70;26.87
67803;BME280;54601;51.378;-1.342;2023-02-26T06:23:01;101072.80;;;15.78;26.83
67803;BME280;54601;51.378;-1.342;2023-02-26T06:25:26;101072.04;;;15.82;26.81
67803;BME280;54601;51.378;-1.342;2023-02-26T06:27:52;101080.71;;;15.89;26.49
67803;BME280;54601;51.378;-1.342;2023-02-26T06:30:17;101079.91;;;15.80;26.81
67803;BME280;54601;51.378;-1.342;2023-02-26T06:32:43;101086.04;;;15.73;26.95
67803;BME280;54601;51.378;-1.342;2023-02-26T06:35:08;101082.82;;;15.53;27.15
67803;BME280;54601;51.378;-1.342;2023-02-26T06:37:33;101088.65;;;15.66;27.09
67803;BME280;54601;51.378;-1.342;2023-02-26T06:39:58;101085.82;;;15.64;27.13
67803;BME280;54601;51.378;-1.342;2023-02-26T06:42:24;101085.50;;;15.81;27.02
67803;BME280;54601;51.378;-1.342;2023-02-26T06:44:49;101089.50;;;15.56;27.02
67803;BME280;54601;51.378;-1.342;2023-02-26T06:47:15;101097.84;;;15.73;27.13
67803;BME280;54601;51.378;-1.342;2023-02-26T06:49:40;101101.12;;;15.71;27.18
67803;BME280;54601;51.378;-1.342;2023-02-26T06:52:06;101106.29;;;15.57;27.33
67803;BME280;54601;51.378;-1.342;2023-02-26T06:54:31;101109.81;;;15.61;27.30
67803;BME280;54601;51.378;-1.342;2023-02-26T06:56:57;101110.90;;;15.56;27.34
67803;BME280;54601;51.378;-1.342;2023-02-26T06:59:22;101115.03;;;15.42;27.53
67803;BME280;54601;51.378;-1.342;2023-02-26T07:01:48;101120.28;;;15.64;27.32
67803;BME280;54601;51.378;-1.342;2023-02-26T07:04:13;101119.94;;;15.44;27.53
67803;BME280;54601;51.378;-1.342;2023-02-26T07:06:38;101126.04;;;15.59;27.46
67803;BME280;54601;51.378;-1.342;2023-02-26T07:09:04;101128.87;;;15.22;27.51
67803;BME280;54601;51.378;-1.342;2023-02-26T07:11:29;101130.81;;;15.53;27.52
67803;BME280;54601;51.378;-1.342;2023-02-26T07:13:55;101137.44;;;15.55;27.49
67803;BME280;54601;51.378;-1.342;2023-02-26T07:16:20;101141.58;;;15.51;27.56
67803;BME280;54601;51.378;-1.342;2023-02-26T07:18:46;101137.31;;;15.53;27.53
67803;BME280;54601;51.378;-1.342;2023-02-26T07:21:11;101142.25;;;15.73;27.36
67803;BME280;54601;51.378;-1.342;2023-02-26T07:23:37;101141.73;;;15.48;27.32
67803;BME280;54601;51.378;-1.342;2023-02-26T07:26:02;101147.71;;;15.72;27.40
67803;BME280;54601;51.378;-1.342;2023-02-26T07:28:28;101150.41;;;15.53;27.56
67803;BME280;54601;51.378;-1.342;2023-02-26T07:30:54;101157.82;;;15.46;27.64
67803;BME280;54601;51.378;-1.342;2023-02-26T07:33:18;101157.01;;;15.54;27.58
67803;BME280;54601;51.378;-1.342;2023-02-26T07:35:44;101170.40;;;15.65;27.46
67803;BME280;54601;51.378;-1.342;2023-02-26T07:38:09;101172.23;;;15.65;27.49
67803;BME280;54601;51.378;-1.342;2023-02-26T07:40:35;101180.17;;;15.46;27.39
67803;BME280;54601;51.378;-1.342;2023-02-26T07:43:00;101176.57;;;15.60;27.26
67803;BME280;54601;51.378;-1.342;2023-02-26T07:45:26;101177.68;;;15.72;27.40
67803;BME280;54601;51.378;-1.342;2023-02-26T07:47:51;101174.45;;;15.81;27.34
67803;BME280;54601;51.378;-1.342;2023-02-26T07:50:18;101180.97;;;15.86;27.29
67803;BME280;54601;51.378;-1.342;2023-02-26T07:52:42;101178.86;;;15.86;27.30
67803;BME280;54601;51.378;-1.342;2023-02-26T07:55:09;101184.98;;;15.93;27.22
67803;BME280;54601;51.378;-1.342;2023-02-26T07:57:33;101189.35;;;15.86;27.28
67803;BME280;54601;51.378;-1.342;2023-02-26T07:59:59;101190.72;;;15.60;27.28
67803;BME280;54601;51.378;-1.342;2023-02-26T08:02:24;101197.50;;;15.84;27.30
67803;BME280;54601;51.378;-1.342;2023-02-26T08:04:50;101197.92;;;15.92;27.20
67803;BME280;54601;51.378;-1.342;2023-02-26T08:07:15;101198.21;;;15.90;27.24
67803;BME280;54601;51.378;-1.342;2023-02-26T08:09:41;101205.12;;;15.54;27.34
67803;BME280;54601;51.378;-1.342;2023-02-26T08:12:06;101208.48;;;15.70;27.19
67803;BME280;54601;51.378;-1.342;2023-02-26T08:14:31;101207.84;;;15.95;27.16
67803;BME280;54601;51.378;-1.342;2023-02-26T08:16:57;101211.46;;;15.94;27.21
67803;BME280;54601;51.378;-1.342;2023-02-26T08:19:22;101214.17;;;15.76;27.12
67803;BME280;54601;51.378;-1.342;2023-02-26T08:21:48;101216.61;;;15.73;27.18
67803;BME280;54601;51.378;-1.342;2023-02-26T08:24:14;101217.99;;;15.86;27.29
67803;BME280;54601;51.378;-1.342;2023-02-26T08:26:39;101223.93;;;15.66;27.23
67803;BME280;54601;51.378;-1.342;2023-02-26T08:29:05;101221.38;;;15.69;27.21
67803;BME280;54601;51.378;-1.342;2023-02-26T08:31:30;101220.99;;;16.02;27.17
67803;BME280;54601;51.378;-1.342;2023-02-26T08:33:55;101226.42;;;16.09;27.12
67803;BME280;54601;51.378;-1.342;2023-02-26T08:36:21;101227.05;;;15.59;27.33
67803;BME280;54601;51.378;-1.342;2023-02-26T08:38:46;101228.26;;;15.69;27.22
67803;BME280;54601;51.378;-1.342;2023-02-26T08:41:12;101227.82;;;16.02;27.18
67803;BME280;54601;51.378;-1.342;2023-02-26T08:43:37;101229.07;;;16.17;27.10
67803;BME280;54601;51.378;-1.342;2023-02-26T08:46:03;101230.37;;;15.96;27.29
67803;BME280;54601;51.378;-1.342;2023-02-26T08:48:28;101231.63;;;15.68;27.31
67803;BME280;54601;51.378;-1.342;2023-02-26T08:50:53;101230.91;;;15.58;27.23
67803;BME280;54601;51.378;-1.342;2023-02-26T08:53:19;101230.32;;;15.89;27.18
67803;BME280;54601;51.378;-1.342;2023-02-26T08:55:47;101233.09;;;15.89;27.18
67803;BME280;54601;51.378;-1.342;2023-02-26T08:58:10;101236.87;;;16.17;26.92
67803;BME280;54601;51.378;-1.342;2023-02-26T09:00:35;101239.55;;;16.07;27.02
67803;BME280;54601;51.378;-1.342;2023-02-26T09:03:01;101244.55;;;16.01;27.08
67803;BME280;54601;51.378;-1.342;2023-02-26T09:05:26;101248.24;;;16.12;27.00
67803;BME280;54601;51.378;-1.342;2023-02-26T09:07:51;101256.43;;;15.89;27.18
67803;BME280;54601;51.378;-1.342;2023-02-26T09:10:17;101260.46;;;15.74;27.38
67803;BME280;54601;51.378;-1.342;2023-02-26T09:12:42;101261.22;;;15.83;27.56
67803;BME280;54601;51.378;-1.342;2023-02-26T09:15:09;101266.90;;;15.39;27.76
67803;BME280;54601;51.378;-1.342;2023-02-26T09:17:33;101269.47;;;15.76;27.70
67803;BME280;54601;51.378;-1.342;2023-02-26T09:19:59;101274.26;;;15.39;27.78
67803;BME280;54601;51.378;-1.342;2023-02-26T09:22:24;101274.30;;;15.36;27.84
67803;BME280;54601;51.378;-1.342;2023-02-26T09:24:50;101276.92;;;15.20;28.00
67803;BME280;54601;51.378;-1.342;2023-02-26T09:27:15;101280.33;;;15.54;27.92
67803;BME280;54601;51.378;-1.342;2023-02-26T09:29:40;101278.30;;;15.66;27.83
67803;BME280;54601;51.378;-1.342;2023-02-26T09:32:06;101276.61;;;15.77;27.71
67803;BME280;54601;51.378;-1.342;2023-02-26T09:36:57;101280.66;;;15.45;28.07
67803;BME280;54601;51.378;-1.342;2023-02-26T09:39:22;101284.89;;;15.52;28.07
67803;BME280;54601;51.378;-1.342;2023-02-26T09:41:50;101292.11;;;15.39;28.40
67803;BME280;54601;51.378;-1.342;2023-02-26T09:44:16;101290.50;;;15.11;28.47
67803;BME280;54601;51.378;-1.342;2023-02-26T09:46:46;101293.41;;;15.40;28.30
67803;BME280;54601;51.378;-1.342;2023-02-26T09:49:14;101294.48;;;16.13;27.91
67803;BME280;54601;51.378;-1.342;2023-02-26T09:51:30;101294.61;;;16.21;27.90
67803;BME280;54601;51.378;-1.342;2023-02-26T09:53:55;101296.44;;;15.91;27.78
67803;BME280;54601;51.378;-1.342;2023-02-26T09:56:23;101303.68;;;16.38;27.54
67803;BME280;54601;51.378;-1.342;2023-02-26T09:58:46;101302.36;;;16.04;27.90
67803;BME280;54601;51.378;-1.342;2023-02-26T10:01:15;101303.41;;;15.79;27.91
67803;BME280;54601;51.378;-1.342;2023-02-26T10:03:49;101306.00;;;16.13;27.85
67803;BME280;54601;51.378;-1.342;2023-02-26T10:06:12;101310.88;;;16.02;27.75
67803;BME280;54601;51.378;-1.342;2023-02-26T10:08:32;101313.87;;;16.03;27.76
67803;BME280;54601;51.378;-1.342;2023-02-26T10:10:58;101314.45;;;16.02;27.82
67803;BME280;54601;51.378;-1.342;2023-02-26T10:13:24;101317.50;;;16.00;27.88
67803;BME280;54601;51.378;-1.342;2023-02-26T10:15:44;101317.70;;;15.64;28.58
67803;BME280;54601;51.378;-1.342;2023-02-26T10:18:11;101323.40;;;15.77;28.72
67803;BME280;54601;51.378;-1.342;2023-02-26T10:20:40;101323.53;;;15.86;28.65
67803;BME280;54601;51.378;-1.342;2023-02-26T10:23:02;101333.78;;;16.41;28.47
67803;BME280;54601;51.378;-1.342;2023-02-26T10:25:30;101336.87;;;16.54;28.56
67803;BME280;54601;51.378;-1.342;2023-02-26T10:27:56;101334.87;;;16.33;28.75
67803;BME280;54601;51.378;-1.342;2023-02-26T10:30:22;101339.91;;;16.26;28.83
67803;BME280;54601;51.378;-1.342;2023-02-26T10:32:49;101344.54;;;16.33;28.62
67803;BME280;54601;51.378;-1.342;2023-02-26T10:35:09;101355.29;;;16.72;28.28
67803;BME280;54601;51.378;-1.342;2023-02-26T10:37:41;101351.99;;;17.05;27.87
67803;BME280;54601;51.378;-1.342;2023-02-26T10:40:02;101352.16;;;16.70;28.24
67803;BME280;54601;51.378;-1.342;2023-02-26T10:42:25;101356.15;;;16.97;27.74
67803;BME280;54601;51.378;-1.342;2023-02-26T10:44:55;101357.42;;;16.95;28.00
67803;BME280;54601;51.378;-1.342;2023-02-26T10:47:20;101357.35;;;16.99;27.46
67803;BME280;54601;51.378;-1.342;2023-02-26T10:49:47;101358.70;;;17.47;27.25
67803;BME280;54601;51.378;-1.342;2023-02-26T10:52:12;101356.95;;;16.92;27.74
67803;BME280;54601;51.378;-1.342;2023-02-26T10:54:32;101358.08;;;17.38;27.49
67803;BME280;54601;51.378;-1.342;2023-02-26T10:56:54;101361.53;;;16.87;27.92
67803;BME280;54601;51.378;-1.342;2023-02-26T10:59:19;101361.28;;;17.14;27.30
67803;BME280;54601;51.378;-1.342;2023-02-26T11:01:45;101364.34;;;17.34;27.44
67803;BME280;54601;51.378;-1.342;2023-02-26T11:04:12;101369.16;;;17.58;27.08
67803;BME280;54601;51.378;-1.342;2023-02-26T11:06:39;101368.36;;;17.43;27.08
67803;BME280;54601;51.378;-1.342;2023-02-26T11:09:02;101371.10;;;16.98;27.16
67803;BME280;54601;51.378;-1.342;2023-02-26T11:11:35;101375.46;;;17.38;26.95
67803;BME280;54601;51.378;-1.342;2023-02-26T11:13:51;101378.51;;;17.10;27.37
67803;BME280;54601;51.378;-1.342;2023-02-26T11:16:18;101381.07;;;17.03;27.01
67803;BME280;54601;51.378;-1.342;2023-02-26T11:18:45;101394.34;;;17.11;26.95
67803;BME280;54601;51.378;-1.342;2023-02-26T11:21:15;101397.47;;;17.54;26.64
67803;BME280;54601;51.378;-1.342;2023-02-26T11:23:33;101397.69;;;17.03;26.65
67803;BME280;54601;51.378;-1.342;2023-02-26T11:26:01;101396.46;;;16.86;26.89
67803;BME280;54601;51.378;-1.342;2023-02-26T11:28:28;101400.64;;;16.91;26.85
67803;BME280;54601;51.378;-1.342;2023-02-26T11:30:48;101398.75;;;17.04;26.67
67803;BME280;54601;51.378;-1.342;2023-02-26T11:33:20;101403.22;;;16.84;26.58
67803;BME280;54601;51.378;-1.342;2023-02-26T11:35:40;101409.57;;;16.74;26.59
67803;BME280;54601;51.378;-1.342;2023-02-26T11:38:04;101406.79;;;17.01;26.24
67803;BME280;54601;51.378;-1.342;2023-02-26T11:40:36;101407.87;;;16.84;26.50
67803;BME280;54601;51.378;-1.342;2023-02-26T11:42:58;101406.89;;;17.20;26.68
67803;BME280;54601;51.378;-1.342;2023-02-26T11:45:21;101410.37;;;16.82;26.41
67803;BME280;54601;51.378;-1.342;2023-02-26T11:47:46;101412.75;;;17.36;26.28
67803;BME280;54601;51.378;-1.342;2023-02-26T11:50:13;101412.73;;;17.26;26.21
67803;BME280;54601;51.378;-1.342;2023-02-26T11:52:40;101421.82;;;17.29;26.33
67803;BME280;54601;51.378;-1.342;2023-02-26T11:55:05;101425.46;;;17.14;26.46
67803;BME280;54601;51.378;-1.342;2023-02-26T11:57:29;101423.30;;;16.81;26.28
67803;BME280;54601;51.378;-1.342;2023-02-26T11:59:54;101418.95;;;17.21;26.38
67803;BME280;54601;51.378;-1.342;2023-02-26T12:02:20;101417.57;;;17.20;26.46
67803;BME280;54601;51.378;-1.342;2023-02-26T12:04:46;101418.83;;;16.98;26.47
67803;BME280;54601;51.378;-1.342;2023-02-26T12:07:11;101421.50;;;17.08;26.48
67803;BME280;54601;51.378;-1.342;2023-02-26T12:09:34;101414.82;;;17.25;26.32
67803;BME280;54601;51.378;-1.342;2023-02-26T12:12:10;101418.60;;;17.25;26.26
67803;BME280;54601;51.378;-1.342;2023-02-26T12:14:37;101418.13;;;16.70;26.34
67803;BME280;54601;51.378;-1.342;2023-02-26T12:16:59;101414.44;;;17.20;26.13
67803;BME280;54601;51.378;-1.342;2023-02-26T12:19:23;101414.71;;;17.20;26.03
67803;BME280;54601;51.378;-1.342;2023-02-26T12:21:57;101417.91;;;17.37;25.94
67803;BME280;54601;51.378;-1.342;2023-02-26T12:24:20;101419.20;;;17.35;26.10
67803;BME280;54601;51.378;-1.342;2023-02-26T12:26:33;101418.78;;;17.30;26.16
67803;BME280;54601;51.378;-1.342;2023-02-26T12:29:12;101418.33;;;16.88;26.34
67803;BME280;54601;51.378;-1.342;2023-02-26T12:31:38;101416.21;;;16.75;26.44
67803;BME280;54601;51.378;-1.342;2023-02-26T12:33:54;101416.80;;;17.15;26.38
67803;BME280;54601;51.378;-1.342;2023-02-26T12:36:24;101420.26;;;16.74;26.42